sensor_id;sensor_type;location;lat;lon;timestamp;pressure;altitude;pressure_sealevel;temperature;humidity
10806;BME280;5455;53.224;6.000;2023-02-23T00:01:53;101255.78;;;7.57;100.00
10806;BME280;5455;53.224;6.000;2023-02-23T00:04:21;101259.03;;;7.59;100.00
10806;BME280;5455;53.224;6.000;2023-02-23T00:06:50;101258.88;;;7.56;100.00
10806;BME280;5455;53.224;6.000;2023-02-23T00:09:20;101258.06;;;7.55;100.00
10806;BME280;5455;53.224;6.000;2023-02-23T00:11:52;101254.19;;;7.56;100.00
10806;BME280;5455;53.224;6.000;2023-02-23T00:14:22;101247.09;;;7.55;100.00
10806;BME280;5455;53.224;6.000;2023-02-23T00:16:56;101250.19;;;7.54;100.00
10806;BME280;5455;53.224;6.000;2023-02-23T00:19:23;101248.56;;;7.53;100.00
10806;BME280;5455;53.224;6.000;2023-02-23T00:21:51;101246.63;;;7.53;100.00
10806;BME280;5455;53.224;6.000;2023-02-23T00:24:19;101242.59;;;7.51;100.00
10806;BME280;5455;53.224;6.000;2023-02-23T00:26:52;101243.72;;;7.50;100.00
10806;BME280;5455;53.224;6.000;2023-02-23T00:29:21;101239.72;;;7.47;100.00
10806;BME280;5455;53.224;6.000;2023-02-23T00:31:50;101233.25;;;7.43;100.00
10806;BME280;5455;53.224;6.000;2023-02-23T00:34:19;101235.53;;;7.41;100.00
10806;BME280;5455;53.224;6.000;2023-02-23T00:36:50;101238.75;;;7.43;100.00
10806;BME280;5455;53.224;6.000;2023-02-23T00:39:21;101245.50;;;7.46;100.00
10806;BME280;5455;53.224;6.000;2023-02-23T00:41:51;101237.28;;;7.46;100.00
10806;BME280;5455;53.224;6.000;2023-02-23T00:44:19;101235.69;;;7.45;100.00
10806;BME280;5455;53.224;6.000;2023-02-23T00:46:47;101231.78;;;7.46;100.00
10806;BME280;5455;53.224;6.000;2023-02-23T00:49:18;101231.13;;;7.49;100.00
10806;BME280;5455;53.224;6.000;2023-02-23T00:51:46;101230.31;;;7.48;100.00
10806;BME280;5455;53.224;6.000;2023-02-23T00:54:15;101228.72;;;7.47;100.00
10806;BME280;5455;53.224;6.000;2023-02-23T00:56:44;101229.53;;;7.48;100.00
10806;BME280;5455;53.224;6.000;2023-02-23T00:59:12;101226.81;;;7.48;100.00
10806;BME280;5455;53.224;6.000;2023-02-23T01:01:39;101229.53;;;7.48;100.00
10806;BME280;5455;53.224;6.000;2023-02-23T01:04:11;101234.69;;;7.49;100.00
10806;BME280;5455;53.224;6.000;2023-02-23T01:06:39;101234.69;;;7.49;100.00
10806;BME280;5455;53.224;6.000;2023-02-23T01:09:15;101232.59;;;7.46;100.00
10806;BME280;5455;53.224;6.000;2023-02-23T01:11:48;101243.72;;;7.50;100.00
10806;BME280;5455;53.224;6.000;2023-02-23T01:14:14;101241.44;;;7.52;100.00
10806;BME280;5455;53.224;6.000;2023-02-23T01:16:41;101237.91;;;7.51;100.00
10806;BME280;5455;53.224;6.000;2023-02-23T01:19:09;101248.09;;;7.51;100.00
10806;BME280;5455;53.224;6.000;2023-02-23T01:21:39;101247.44;;;7.54;100.00
10806;BME280;5455;53.224;6.000;2023-02-23T01:24:08;101247.09;;;7.55;100.00
10806;BME280;5455;53.224;6.000;2023-02-23T01:26:38;101246.28;;;7.55;100.00
10806;BME280;5455;53.224;6.000;2023-02-23T01:29:11;101240.97;;;7.50;100.00
10806;BME280;5455;53.224;6.000;2023-02-23T01:31:40;101250.84;;;7.51;100.00
10806;BME280;5455;53.224;6.000;2023-02-23T01:34:10;101247.56;;;7.57;100.00
10806;BME280;5455;53.224;6.000;2023-02-23T01:36:39;101250.97;;;7.54;100.00
10806;BME280;5455;53.224;6.000;2023-02-23T01:39:10;101251.91;;;7.58;100.00
10806;BME280;5455;53.224;6.000;2023-02-23T01:41:40;101246.78;;;7.57;100.00
10806;BME280;5455;53.224;6.000;2023-02-23T01:46:41;101245.47;;;7.54;100.00
10806;BME280;5455;53.224;6.000;2023-02-23T01:49:16;101252.13;;;7.53;100.00
10806;BME280;5455;53.224;6.000;2023-02-23T01:51:50;101263.91;;;7.54;100.00
10806;BME280;5455;53.224;6.000;2023-02-23T01:54:21;101260.34;;;7.53;100.00
10806;BME280;5455;53.224;6.000;2023-02-23T01:56:52;101262.75;;;7.55;100.00
10806;BME280;5455;53.224;6.000;2023-02-23T01:59:36;101255.66;;;7.54;100.00
10806;BME280;5455;53.224;6.000;2023-02-23T02:02:04;101254.19;;;7.56;100.00
10806;BME280;5455;53.224;6.000;2023-02-23T02:04:34;101257.56;;;7.62;100.00
10806;BME280;5455;53.224;6.000;2023-02-23T02:07:15;101259.19;;;7.63;100.00
10806;BME280;5455;53.224;6.000;2023-02-23T02:09:48;101259.03;;;7.59;100.00
10806;BME280;5455;53.224;6.000;2023-02-23T02:12:39;101265.34;;;7.60;100.00
10806;BME280;5455;53.224;6.000;2023-02-23T02:15:07;101255.13;;;7.60;100.00
10806;BME280;5455;53.224;6.000;2023-02-23T02:21:08;101264.47;;;7.68;100.00
10806;BME280;5455;53.224;6.000;2023-02-23T02:41:56;101268.72;;;7.57;100.00
10806;BME280;5455;53.224;6.000;2023-02-23T02:44:40;101267.25;;;7.59;100.00
10806;BME280;5455;53.224;6.000;2023-02-23T02:47:18;101270.31;;;7.58;100.00
10806;BME280;5455;53.224;6.000;2023-02-23T02:49:54;101260.63;;;7.60;100.00
10806;BME280;5455;53.224;6.000;2023-02-23T02:52:33;101254.47;;;7.63;100.00
10806;BME280;5455;53.224;6.000;2023-02-23T02:55:15;101259.50;;;7.61;100.00
10806;BME280;5455;53.224;6.000;2023-02-23T02:57:45;101270.00;;;7.59;100.00
10806;BME280;5455;53.224;6.000;2023-02-23T03:00:22;101266.09;;;7.60;100.00
10806;BME280;5455;53.224;6.000;2023-02-23T03:03:34;101267.25;;;7.59;100.00
10806;BME280;5455;53.224;6.000;2023-02-23T03:06:35;101268.72;;;7.57;100.00
10806;BME280;5455;53.224;6.000;2023-02-23T03:09:42;101274.69;;;7.59;100.00
10806;BME280;5455;53.224;6.000;2023-02-23T03:21:30;101275.34;;;7.56;100.00
10806;BME280;5455;53.224;6.000;2023-02-23T03:27:26;101283.22;;;7.57;100.00
10806;BME280;5455;53.224;6.000;2023-02-23T03:33:13;101290.84;;;7.52;100.00
10806;BME280;5455;53.224;6.000;2023-02-23T03:36:07;101294.72;;;7.51;100.00
10806;BME280;5455;53.224;6.000;2023-02-23T03:39:06;101295.03;;;7.49;100.00
10806;BME280;5455;53.224;6.000;2023-02-23T03:41:57;101300.53;;;7.49;100.00
10806;BME280;5455;53.224;6.000;2023-02-23T03:44:46;101301.97;;;7.55;100.00
10806;BME280;5455;53.224;6.000;2023-02-23T03:47:36;101302.63;;;7.52;100.00
10806;BME280;5455;53.224;6.000;2023-02-23T03:50:39;101298.44;;;7.46;100.00
10806;BME280;5455;53.224;6.000;2023-02-23T03:54:32;101302.31;;;7.45;100.00
10806;BME280;5455;53.224;6.000;2023-02-23T03:56:47;101303.94;;;7.46;100.00
10806;BME280;5455;53.224;6.000;2023-02-23T03:59:39;101304.59;;;7.43;100.00
10806;BME280;5455;53.224;6.000;2023-02-23T04:02:29;101305.69;;;7.42;100.00
10806;BME280;5455;53.224;6.000;2023-02-23T04:05:17;101299.44;;;7.33;100.00
10806;BME280;5455;53.224;6.000;2023-02-23T04:08:06;101299.44;;;7.33;100.00
10806;BME280;5455;53.224;6.000;2023-02-23T04:11:00;101301.41;;;7.33;100.00
10806;BME280;5455;53.224;6.000;2023-02-23T04:13:50;101295.91;;;7.33;100.00
10806;BME280;5455;53.224;6.000;2023-02-23T04:16:19;101302.34;;;7.28;100.00
10806;BME280;5455;53.224;6.000;2023-02-23T04:18:46;101299.28;;;7.21;100.00
10806;BME280;5455;53.224;6.000;2023-02-23T04:21:13;101304.78;;;7.21;100.00
10806;BME280;5455;53.224;6.000;2023-02-23T04:23:41;101312.53;;;7.19;100.00
10806;BME280;5455;53.224;6.000;2023-02-23T04:26:08;101314.81;;;7.17;100.00
10806;BME280;5455;53.224;6.000;2023-02-23T04:28:35;101309.97;;;7.14;100.00
10806;BME280;5455;53.224;6.000;2023-02-23T04:31:02;101313.53;;;7.14;100.00
10806;BME280;5455;53.224;6.000;2023-02-23T04:33:30;101309.63;;;7.15;100.00
10806;BME280;5455;53.224;6.000;2023-02-23T04:35:57;101315.75;;;7.21;100.00
10806;BME280;5455;53.224;6.000;2023-02-23T04:38:24;101325.59;;;7.22;100.00
10806;BME280;5455;53.224;6.000;2023-02-23T04:40:51;101328.69;;;7.20;100.00
10806;BME280;5455;53.224;6.000;2023-02-23T04:43:18;101325.94;;;7.20;100.00
10806;BME280;5455;53.224;6.000;2023-02-23T04:45:46;101326.41;;;7.22;100.00
10806;BME280;5455;53.224;6.000;2023-02-23T04:48:12;101326.72;;;7.21;100.00
10806;BME280;5455;53.224;6.000;2023-02-23T04:50:40;101327.88;;;7.20;100.00
10806;BME280;5455;53.224;6.000;2023-02-23T04:53:07;101329.00;;;7.19;100.00
10806;BME280;5455;53.224;6.000;2023-02-23T04:55:34;101337.88;;;7.16;100.00
10806;BME280;5455;53.224;6.000;2023-02-23T04:58:01;101339.16;;;7.18;100.00
10806;BME280;5455;53.224;6.000;2023-02-23T05:00:29;101338.97;;;7.15;100.00
10806;BME280;5455;53.224;6.000;2023-02-23T05:02:56;101348.03;;;7.15;100.00
10806;BME280;5455;53.224;6.000;2023-02-23T05:05:24;101339.78;;;7.15;100.00
10806;BME280;5455;53.224;6.000;2023-02-23T05:07:51;101340.59;;;7.16;100.00
10806;BME280;5455;53.224;6.000;2023-02-23T05:10:19;101347.72;;;7.17;100.00
10806;BME280;5455;53.224;6.000;2023-02-23T05:12:46;101343.34;;;7.16;100.00
10806;BME280;5455;53.224;6.000;2023-02-23T05:15:13;101344.81;;;7.13;100.00
10806;BME280;5455;53.224;6.000;2023-02-23T05:17:40;101341.25;;;7.13;100.00
10806;BME280;5455;53.224;6.000;2023-02-23T05:20:11;101342.53;;;7.15;100.00
10806;BME280;5455;53.224;6.000;2023-02-23T05:22:39;101346.44;;;7.14;100.00
10806;BME280;5455;53.224;6.000;2023-02-23T05:25:06;101338.66;;;7.16;100.00
10806;BME280;5455;53.224;6.000;2023-02-23T05:27:35;101347.06;;;7.20;100.00
10806;BME280;5455;53.224;6.000;2023-02-23T05:30:04;101347.22;;;7.15;100.00
10806;BME280;5455;53.224;6.000;2023-02-23T05:32:34;101347.22;;;7.15;100.00
10806;BME280;5455;53.224;6.000;2023-02-23T05:35:01;101348.53;;;7.17;100.00
10806;BME280;5455;53.224;6.000;2023-02-23T05:37:29;101348.53;;;7.17;100.00
10806;BME280;5455;53.224;6.000;2023-02-23T05:39:55;101355.28;;;7.20;100.00
10806;BME280;5455;53.224;6.000;2023-02-23T05:42:22;101347.22;;;7.24;100.00
10806;BME280;5455;53.224;6.000;2023-02-23T05:44:52;101340.59;;;7.25;100.00
10806;BME280;5455;53.224;6.000;2023-02-23T05:47:19;101341.88;;;7.27;100.00
10806;BME280;5455;53.224;6.000;2023-02-23T05:49:46;101350.75;;;7.24;100.00
10806;BME280;5455;53.224;6.000;2023-02-23T05:52:13;101343.03;;;7.26;100.00
10806;BME280;5455;53.224;6.000;2023-02-23T05:54:40;101338.81;;;7.29;100.00
10806;BME280;5455;53.224;6.000;2023-02-23T05:57:06;101342.38;;;7.29;100.00
10806;BME280;5455;53.224;6.000;2023-02-23T05:59:34;101341.72;;;7.32;100.00
10806;BME280;5455;53.224;6.000;2023-02-23T06:02:01;101337.84;;;7.33;100.00
10806;BME280;5455;53.224;6.000;2023-02-23T06:04:31;101344.13;;;7.34;100.00
10806;BME280;5455;53.224;6.000;2023-02-23T06:06:58;101338.66;;;7.34;100.00
10806;BME280;5455;53.224;6.000;2023-02-23T06:09:25;101345.59;;;7.31;100.00
10806;BME280;5455;53.224;6.000;2023-02-23T06:11:52;101357.22;;;7.28;100.00
10806;BME280;5455;53.224;6.000;2023-02-23T06:14:19;101357.84;;;7.25;100.00
10806;BME280;5455;53.224;6.000;2023-02-23T06:16:46;101358.97;;;7.24;100.00
10806;BME280;5455;53.224;6.000;2023-02-23T06:19:14;101360.78;;;7.20;100.00
10806;BME280;5455;53.224;6.000;2023-02-23T06:21:41;101363.19;;;7.21;100.00
10806;BME280;5455;53.224;6.000;2023-02-23T06:24:08;101367.53;;;7.22;100.00
10806;BME280;5455;53.224;6.000;2023-02-23T06:26:36;101374.97;;;7.22;100.00
10806;BME280;5455;53.224;6.000;2023-02-23T06:29:03;101371.09;;;7.23;100.00
10806;BME280;5455;53.224;6.000;2023-02-23T06:31:30;101379.31;;;7.23;100.00
10806;BME280;5455;53.224;6.000;2023-02-23T06:33:57;101381.56;;;7.21;100.00
10806;BME280;5455;53.224;6.000;2023-02-23T06:36:24;101385.75;;;7.18;100.00
10806;BME280;5455;53.224;6.000;2023-02-23T06:38:57;101377.53;;;7.18;100.00
10806;BME280;5455;53.224;6.000;2023-02-23T06:41:25;101391.09;;;7.24;100.00
10806;BME280;5455;53.224;6.000;2023-02-23T06:43:52;101403.19;;;7.22;100.00
10806;BME280;5455;53.224;6.000;2023-02-23T06:46:19;101410.63;;;7.22;100.00
10806;BME280;5455;53.224;6.000;2023-02-23T06:48:46;101408.34;;;7.24;100.00
10806;BME280;5455;53.224;6.000;2023-02-23T06:51:13;101409.81;;;7.21;100.00
10806;BME280;5455;53.224;6.000;2023-02-23T06:53:40;101411.09;;;7.24;100.00
10806;BME280;5455;53.224;6.000;2023-02-23T06:56:07;101409.81;;;7.21;100.00
10806;BME280;5455;53.224;6.000;2023-02-23T06:58:37;101411.91;;;7.25;100.00
10806;BME280;5455;53.224;6.000;2023-02-23T07:01:04;101415.94;;;7.27;100.00
10806;BME280;5455;53.224;6.000;2023-02-23T07:03:31;101404.97;;;7.27;100.00
10806;BME280;5455;53.224;6.000;2023-02-23T07:05:58;101419.34;;;7.33;100.00
10806;BME280;5455;53.224;6.000;2023-02-23T07:08:25;101424.66;;;7.29;100.00
10806;BME280;5455;53.224;6.000;2023-02-23T07:10:56;101430.16;;;7.29;100.00
10806;BME280;5455;53.224;6.000;2023-02-23T07:13:24;101433.19;;;7.28;100.00
10806;BME280;5455;53.224;6.000;2023-02-23T07:15:55;101437.56;;;7.29;100.00
10806;BME280;5455;53.224;6.000;2023-02-23T07:18:23;101444.34;;;7.31;100.00
10806;BME280;5455;53.224;6.000;2023-02-23T07:20:50;101443.38;;;7.36;100.00
10806;BME280;5455;53.224;6.000;2023-02-23T07:23:20;101446.25;;;7.39;100.00
10806;BME280;5455;53.224;6.000;2023-02-23T07:25:52;101450.63;;;7.40;100.00
10806;BME280;5455;53.224;6.000;2023-02-23T07:28:21;101444.84;;;7.42;100.00
10806;BME280;5455;53.224;6.000;2023-02-23T07:30:48;101454.00;;;7.46;100.00
10806;BME280;5455;53.224;6.000;2023-02-23T07:33:15;101449.50;;;7.41;100.00
10806;BME280;5455;53.224;6.000;2023-02-23T07:35:42;101453.53;;;7.44;100.00
10806;BME280;5455;53.224;6.000;2023-02-23T07:38:11;101454.66;;;7.43;100.00
10806;BME280;5455;53.224;6.000;2023-02-23T07:40:39;101461.44;;;7.45;100.00
10806;BME280;5455;53.224;6.000;2023-02-23T07:43:06;101466.13;;;7.53;100.00
10806;BME280;5455;53.224;6.000;2023-02-23T07:45:33;101469.69;;;7.54;100.00
10806;BME280;5455;53.224;6.000;2023-02-23T07:48:01;101470.16;;;7.56;100.00
10806;BME280;5455;53.224;6.000;2023-02-23T07:50:28;101475.47;;;7.61;100.00
10806;BME280;5455;53.224;6.000;2023-02-23T07:52:55;101465.31;;;7.61;100.00
10806;BME280;5455;53.224;6.000;2023-02-23T07:55:22;101471.28;;;7.63;100.00
10806;BME280;5455;53.224;6.000;2023-02-23T07:57:49;101472.44;;;7.62;100.00
10806;BME280;5455;53.224;6.000;2023-02-23T08:00:16;101480.66;;;7.62;100.00
10806;BME280;5455;53.224;6.000;2023-02-23T08:02:43;101482.09;;;7.68;100.00
10806;BME280;5455;53.224;6.000;2023-02-23T08:05:11;101483.69;;;7.69;100.00
10806;BME280;5455;53.224;6.000;2023-02-23T08:07:38;101489.53;;;7.76;100.00
10806;BME280;5455;53.224;6.000;2023-02-23T08:10:05;101487.91;;;7.75;100.00
10806;BME280;5455;53.224;6.000;2023-02-23T08:12:35;101487.91;;;7.75;100.00
10806;BME280;5455;53.224;6.000;2023-02-23T08:15:03;101482.41;;;7.75;100.00
10806;BME280;5455;53.224;6.000;2023-02-23T08:17:35;101492.09;;;7.82;100.00
10806;BME280;5455;53.224;6.000;2023-02-23T08:20:04;101497.09;;;7.88;100.00
10806;BME280;5455;53.224;6.000;2023-02-23T08:22:31;101488.56;;;7.90;100.00
10806;BME280;5455;53.224;6.000;2023-02-23T08:25:15;101497.09;;;7.80;100.00
10806;BME280;5455;53.224;6.000;2023-02-23T08:27:42;101496.28;;;7.79;100.00
10806;BME280;5455;53.224;6.000;2023-02-23T08:30:09;101494.38;;;7.80;100.00
10806;BME280;5455;53.224;6.000;2023-02-23T08:32:37;101499.69;;;7.76;100.00
10806;BME280;5455;53.224;6.000;2023-02-23T08:35:04;101500.69;;;7.71;100.00
10806;BME280;5455;53.224;6.000;2023-02-23T08:37:32;101504.06;;;7.68;100.00
10806;BME280;5455;53.224;6.000;2023-02-23T08:39:59;101508.91;;;7.71;100.00
10806;BME280;5455;53.224;6.000;2023-02-23T08:42:27;101519.72;;;7.68;100.00
10806;BME280;5455;53.224;6.000;2023-02-23T08:44:54;101509.06;;;7.66;100.00
10806;BME280;5455;53.224;6.000;2023-02-23T08:47:21;101510.84;;;7.62;100.00
10806;BME280;5455;53.224;6.000;2023-02-23T08:49:50;101511.31;;;7.64;100.00
10806;BME280;5455;53.224;6.000;2023-02-23T08:52:17;101511.00;;;7.66;100.00
10806;BME280;5455;53.224;6.000;2023-02-23T08:54:44;101511.00;;;7.66;100.00
10806;BME280;5455;53.224;6.000;2023-02-23T08:57:11;101513.41;;;7.67;100.00
10806;BME280;5455;53.224;6.000;2023-02-23T08:59:39;101522.13;;;7.69;100.00
10806;BME280;5455;53.224;6.000;2023-02-23T09:02:10;101515.22;;;7.72;100.00
10806;BME280;5455;53.224;6.000;2023-02-23T09:04:38;101513.75;;;7.83;100.00
10806;BME280;5455;53.224;6.000;2023-02-23T09:07:12;101513.88;;;8.04;100.00
10806;BME280;5455;53.224;6.000;2023-02-23T09:09:40;101517.22;;;8.18;100.00
10806;BME280;5455;53.224;6.000;2023-02-23T09:12:07;101515.63;;;8.34;100.00
10806;BME280;5455;53.224;6.000;2023-02-23T09:14:34;101511.53;;;8.49;100.00
10806;BME280;5455;53.224;6.000;2023-02-23T09:17:02;101516.69;;;8.50;100.00
10806;BME280;5455;53.224;6.000;2023-02-23T09:19:29;101518.63;;;8.58;100.00
10806;BME280;5455;53.224;6.000;2023-02-23T09:21:57;101523.25;;;8.66;100.00
10806;BME280;5455;53.224;6.000;2023-02-23T09:24:24;101522.97;;;8.59;100.00
10806;BME280;5455;53.224;6.000;2023-02-23T09:26:50;101523.97;;;8.55;100.00
10806;BME280;5455;53.224;6.000;2023-02-23T09:29:19;101527.88;;;8.45;100.00
10806;BME280;5455;53.224;6.000;2023-02-23T09:31:46;101527.72;;;8.42;100.00
10806;BME280;5455;53.224;6.000;2023-02-23T09:34:13;101527.56;;;8.47;100.00
10806;BME280;5455;53.224;6.000;2023-02-23T09:36:41;101525.63;;;8.39;100.00
10806;BME280;5455;53.224;6.000;2023-02-23T09:39:08;101524.50;;;8.40;100.00
10806;BME280;5455;53.224;6.000;2023-02-23T09:41:52;101539.69;;;8.37;100.00
10806;BME280;5455;53.224;6.000;2023-02-23T09:50:01;101542.63;;;8.32;100.00
10806;BME280;5455;53.224;6.000;2023-02-23T09:52:41;101543.38;;;8.41;100.00
10806;BME280;5455;53.224;6.000;2023-02-23T09:55:12;101541.75;;;8.49;100.00
10806;BME280;5455;53.224;6.000;2023-02-23T09:57:43;101534.94;;;8.55;100.00
10806;BME280;5455;53.224;6.000;2023-02-23T10:00:21;101543.47;;;8.70;100.00
10806;BME280;5455;53.224;6.000;2023-02-23T10:03:11;101543.25;;;8.84;100.00
10806;BME280;5455;53.224;6.000;2023-02-23T10:05:55;101554.34;;;8.96;100.00
10806;BME280;5455;53.224;6.000;2023-02-23T10:08:43;101553.94;;;8.85;100.00
10806;BME280;5455;53.224;6.000;2023-02-23T10:11:25;101563.41;;;8.97;100.00
10806;BME280;5455;53.224;6.000;2023-02-23T10:17:14;101577.75;;;9.11;100.00
10806;BME280;5455;53.224;6.000;2023-02-23T10:19:58;101563.75;;;8.95;100.00
10806;BME280;5455;53.224;6.000;2023-02-23T10:22:34;101568.91;;;8.97;100.00
10806;BME280;5455;53.224;6.000;2023-02-23T10:25:06;101571.44;;;9.10;100.00
10806;BME280;5455;53.224;6.000;2023-02-23T10:27:40;101571.25;;;9.15;100.00
10806;BME280;5455;53.224;6.000;2023-02-23T10:30:37;101572.59;;;9.09;100.00
10806;BME280;5455;53.224;6.000;2023-02-23T10:33:32;101571.63;;;9.05;100.00
10806;BME280;5455;53.224;6.000;2023-02-23T10:36:17;101573.59;;;8.96;100.00
10806;BME280;5455;53.224;6.000;2023-02-23T10:38:45;101578.34;;;9.25;100.00
10806;BME280;5455;53.224;6.000;2023-02-23T10:41:13;101579.97;;;9.47;100.00
10806;BME280;5455;53.224;6.000;2023-02-23T10:43:40;101573.03;;;9.40;100.00
10806;BME280;5455;53.224;6.000;2023-02-23T10:46:16;101590.31;;;9.50;100.00
10806;BME280;5455;53.224;6.000;2023-02-23T10:48:46;101579.50;;;9.45;100.00
10806;BME280;5455;53.224;6.000;2023-02-23T10:51:18;101592.34;;;9.32;100.00
10806;BME280;5455;53.224;6.000;2023-02-23T10:53:49;101591.94;;;9.21;100.00
10806;BME280;5455;53.224;6.000;2023-02-23T10:56:20;101583.66;;;8.92;100.00
10806;BME280;5455;53.224;6.000;2023-02-23T10:58:53;101589.63;;;8.94;100.00
10806;BME280;5455;53.224;6.000;2023-02-23T11:01:36;101596.31;;;8.84;100.00
10806;BME280;5455;53.224;6.000;2023-02-23T11:04:22;101610.88;;;8.85;100.00
10806;BME280;5455;53.224;6.000;2023-02-23T11:07:06;101615.25;;;8.77;100.00
10806;BME280;5455;53.224;6.000;2023-02-23T11:09:34;101611.41;;;8.70;100.00
10806;BME280;5455;53.224;6.000;2023-02-23T11:12:46;101617.53;;;8.67;100.00
10806;BME280;5455;53.224;6.000;2023-02-23T11:15:25;101609.78;;;8.69;100.00
10806;BME280;5455;53.224;6.000;2023-02-23T11:18:05;101613.66;;;8.68;100.00
10806;BME280;5455;53.224;6.000;2023-02-23T11:23:24;101605.22;;;8.81;100.00
10806;BME280;5455;53.224;6.000;2023-02-23T11:26:00;101607.63;;;8.92;100.00
10806;BME280;5455;53.224;6.000;2023-02-23T11:28:33;101606.44;;;8.93;100.00
10806;BME280;5455;53.224;6.000;2023-02-23T11:31:07;101602.91;;;8.92;100.00
10806;BME280;5455;53.224;6.000;2023-02-23T11:33:39;101605.88;;;9.16;100.00
10806;BME280;5455;53.224;6.000;2023-02-23T11:36:24;101607.84;;;9.07;100.00
10806;BME280;5455;53.224;6.000;2023-02-23T11:41:42;101606.72;;;8.70;100.00
10806;BME280;5455;53.224;6.000;2023-02-23T11:44:36;101610.91;;;8.76;100.00
10806;BME280;5455;53.224;6.000;2023-02-23T11:47:03;101610.28;;;8.71;100.00
10806;BME280;5455;53.224;6.000;2023-02-23T11:49:32;101604.28;;;8.60;100.00
10806;BME280;5455;53.224;6.000;2023-02-23T11:52:01;101609.81;;;8.52;100.00
10806;BME280;5455;53.224;6.000;2023-02-23T11:54:30;101615.00;;;8.45;100.00
10806;BME280;5455;53.224;6.000;2023-02-23T11:57:01;101610.50;;;8.40;100.00
10806;BME280;5455;53.224;6.000;2023-02-23T11:59:32;101607.09;;;8.43;100.00
10806;BME280;5455;53.224;6.000;2023-02-23T12:02:20;101609.84;;;8.35;100.00
10806;BME280;5455;53.224;6.000;2023-02-23T12:05:00;101608.38;;;7.94;100.00
10806;BME280;5455;53.224;6.000;2023-02-23T12:07:39;101616.78;;;7.81;100.00
10806;BME280;5455;53.224;6.000;2023-02-23T12:10:15;101617.06;;;7.70;100.00
10806;BME280;5455;53.224;6.000;2023-02-23T12:15:29;101613.53;;;7.70;100.00
10806;BME280;5455;53.224;6.000;2023-02-23T12:18:10;101620.00;;;7.74;100.00
10806;BME280;5455;53.224;6.000;2023-02-23T12:20:47;101612.56;;;7.83;100.00
10806;BME280;5455;53.224;6.000;2023-02-23T12:23:19;101616.44;;;7.82;100.00
10806;BME280;5455;53.224;6.000;2023-02-23T12:25:56;101625.50;;;7.83;100.00
10806;BME280;5455;53.224;6.000;2023-02-23T12:28:52;101617.91;;;7.88;100.00
10806;BME280;5455;53.224;6.000;2023-02-23T12:31:33;101610.13;;;7.90;100.00
10806;BME280;5455;53.224;6.000;2023-02-23T12:34:13;101620.16;;;7.86;100.00
10806;BME280;5455;53.224;6.000;2023-02-23T12:36:49;101631.47;;;7.85;100.00
10806;BME280;5455;53.224;6.000;2023-02-23T12:39:21;101636.00;;;7.81;100.00
10806;BME280;5455;53.224;6.000;2023-02-23T12:47:07;101634.81;;;7.64;100.00
10806;BME280;5455;53.224;6.000;2023-02-23T12:49:43;101632.53;;;7.58;100.00
10806;BME280;5455;53.224;6.000;2023-02-23T12:52:18;101636.56;;;7.52;100.00
10806;BME280;5455;53.224;6.000;2023-02-23T12:54:46;101635.13;;;7.54;100.00
10806;BME280;5455;53.224;6.000;2023-02-23T12:57:55;101630.25;;;7.51;100.00
10806;BME280;5455;53.224;6.000;2023-02-23T13:00:41;101639.03;;;7.70;100.00
10806;BME280;5455;53.224;6.000;2023-02-23T13:06:10;101645.69;;;7.87;100.00
10806;BME280;5455;53.224;6.000;2023-02-23T13:08:54;101647.63;;;7.86;100.00
10806;BME280;5455;53.224;6.000;2023-02-23T13:11:45;101645.50;;;7.74;100.00
10806;BME280;5455;53.224;6.000;2023-02-23T13:19:38;101645.19;;;7.76;100.00
10806;BME280;5455;53.224;6.000;2023-02-23T13:24:48;101673.09;;;7.69;100.00
10806;BME280;5455;53.224;6.000;2023-02-23T13:27:24;101660.97;;;7.53;100.00
10806;BME280;5455;53.224;6.000;2023-02-23T13:29:53;101661.09;;;7.48;100.00
10806;BME280;5455;53.224;6.000;2023-02-23T13:32:31;101668.69;;;7.51;100.00
10806;BME280;5455;53.224;6.000;2023-02-23T13:35:00;101668.19;;;7.41;100.00
10806;BME280;5455;53.224;6.000;2023-02-23T13:43:04;101671.53;;;7.29;100.00
10806;BME280;5455;53.224;6.000;2023-02-23T13:45:42;101675.16;;;7.16;100.00
10806;BME280;5455;53.224;6.000;2023-02-23T13:48:32;101683.44;;;7.25;100.00
10806;BME280;5455;53.224;6.000;2023-02-23T13:51:37;101687.53;;;7.05;100.00
10806;BME280;5455;53.224;6.000;2023-02-23T13:56:50;101690.81;;;7.15;100.00
10806;BME280;5455;53.224;6.000;2023-02-23T13:59:25;101691.31;;;7.17;100.00
10806;BME280;5455;53.224;6.000;2023-02-23T14:01:55;101690.47;;;7.08;100.00
10806;BME280;5455;53.224;6.000;2023-02-23T14:04:35;101693.78;;;6.97;100.00
10806;BME280;5455;53.224;6.000;2023-02-23T14:07:15;101692.94;;;6.88;100.00
10806;BME280;5455;53.224;6.000;2023-02-23T14:10:03;101697.03;;;6.99;100.00
10806;BME280;5455;53.224;6.000;2023-02-23T14:12:41;101711.22;;;7.01;100.00
10806;BME280;5455;53.224;6.000;2023-02-23T14:21:16;101702.75;;;6.89;100.00
10806;BME280;5455;53.224;6.000;2023-02-23T14:24:03;101704.88;;;6.92;100.00
10806;BME280;5455;53.224;6.000;2023-02-23T14:37:35;101697.22;;;7.02;100.00
10806;BME280;5455;53.224;6.000;2023-02-23T14:40:13;101701.78;;;7.15;100.00
10806;BME280;5455;53.224;6.000;2023-02-23T14:42:42;101705.81;;;7.18;100.00
10806;BME280;5455;53.224;6.000;2023-02-23T14:45:24;101694.59;;;7.28;100.00
10806;BME280;5455;53.224;6.000;2023-02-23T14:48:11;101701.69;;;7.29;100.00
10806;BME280;5455;53.224;6.000;2023-02-23T14:50:39;101706.22;;;7.34;100.00
10806;BME280;5455;53.224;6.000;2023-02-23T14:53:23;101706.22;;;7.34;100.00
10806;BME280;5455;53.224;6.000;2023-02-23T14:55:50;101705.63;;;7.45;100.00
10806;BME280;5455;53.224;6.000;2023-02-23T14:58:24;101720.34;;;7.49;100.00
10806;BME280;5455;53.224;6.000;2023-02-23T15:00:52;101724.75;;;7.28;100.00
10806;BME280;5455;53.224;6.000;2023-02-23T15:03:19;101717.50;;;7.24;100.00
10806;BME280;5455;53.224;6.000;2023-02-23T15:06:14;101710.66;;;7.21;100.00
10806;BME280;5455;53.224;6.000;2023-02-23T15:08:43;101717.19;;;7.34;100.00
10806;BME280;5455;53.224;6.000;2023-02-23T15:11:12;101710.25;;;7.36;100.00